• pl
  • eng

Awiacja
WIADOMOŚCI
ostatnia aktualizacja: 06.03.2019 14:41
Szanowni Państwo,

uprzejmie informujemy, że z dniem 01.01.2019 roku z obszaru MOLC zostało wyłączone BPM we Wrocławiu. Jego zadania zostały przejęte przez BPM w Krakowie.

TAF FC 12:30 24.03.2019
  • WIND
  • SIGNIFICANT EURO
  • SIGNIFICANT
  • SIGMET
  • AIRMET
  • TAF FC
  • TAF FT
  • METAR GG30
  • METAR GG00


TAF EPLB 240830Z 2409/2418 31010KT CAVOK=

TAF EPLB 241130Z 2412/2421 29010KT CAVOK
BECMG 2415/2417 VRB02KT=

TAF EPRA 240830Z 2409/2418 30010KT CAVOK
PROB30 TEMPO 2409/2412 SCT033=

TAF EPRA 241130Z 2412/2421 30010KT CAVOK
BECMG 2416/2418 VRB02KT=

TAF EPSY 240900Z 2409/2418 31008KT 9999 SCT027=

TAF EPSY 241130Z 2412/2421 30007KT CAVOK=

TAF EPZG 240830Z 2409/2418 34004KT CAVOK=

TAF EPZG 241130Z 2412/2421 34004KT CAVOK=
Awiacja.imgw.pl jest pogodowym serwisem informacyjnym
Instytutu Meteorologii i Gospodarki Wodnej Państwowego Instytutu Badawczego.
Copyright IMGW PIB 2009-2011© Wszelkie prawa zastrzeżone.